createdAt,value
2018-06-20T00:02:13.363Z,80.00
2018-06-20T00:04:42.252Z,80.08
2018-06-20T00:07:11.386Z,79.86
2018-06-20T00:09:40.489Z,80.17
2018-06-20T00:12:09.777Z,79.80
2018-06-20T00:14:38.655Z,79.81
2018-06-20T00:17:07.772Z,80.07
2018-06-20T00:19:36.791Z,80.67
2018-06-20T00:22:05.727Z,80.39
2018-06-20T00:24:34.961Z,80.34
2018-06-20T00:27:03.889Z,80.22
2018-06-20T00:29:32.819Z,80.22
2018-06-20T00:32:01.895Z,81.08
2018-06-20T00:34:30.841Z,81.31
2018-06-20T00:37:01.126Z,80.99
2018-06-20T00:39:30.183Z,81.49
2018-06-20T00:41:59.149Z,81.61
2018-06-20T00:44:28.064Z,81.80
2018-06-20T00:46:57.007Z,81.72
2018-06-20T00:49:25.925Z,81.61
2018-06-20T00:51:54.959Z,81.69
2018-06-20T00:54:23.879Z,81.27
2018-06-20T00:56:53.080Z,81.18
2018-06-20T00:59:21.960Z,81.33
2018-06-20T01:01:50.893Z,81.26
2018-06-20T01:04:19.821Z,81.47
2018-06-20T01:06:48.713Z,81.66
2018-06-20T01:09:17.604Z,82.07
2018-06-20T01:11:46.790Z,81.56
2018-06-20T01:14:15.583Z,81.94
2018-06-20T01:16:44.549Z,81.86
2018-06-20T01:19:13.507Z,81.63
2018-06-20T01:21:42.402Z,81.60
2018-06-20T01:24:11.356Z,81.61
2018-06-20T01:26:40.309Z,81.79
2018-06-20T01:29:15.615Z,81.81
2018-06-20T01:31:44.621Z,81.99
2018-06-20T01:34:14.201Z,82.18
2018-06-20T01:36:43.084Z,82.50
2018-06-20T01:39:12.411Z,82.21
2018-06-20T01:41:41.287Z,82.00
2018-06-20T01:44:10.491Z,81.54
2018-06-20T01:46:39.423Z,81.60
2018-06-20T01:49:08.744Z,81.56
2018-06-20T01:51:37.673Z,81.50
2018-06-20T01:54:07.192Z,81.83
2018-06-20T01:56:36.153Z,81.72
2018-06-20T01:59:05.113Z,81.91
2018-06-20T02:01:34.015Z,81.59
2018-06-20T02:04:03.012Z,81.71
2018-06-20T02:06:33.694Z,82.02
2018-06-20T02:09:02.623Z,82.27
2018-06-20T02:11:31.571Z,82.23
2018-06-20T02:14:00.573Z,82.26
2018-06-20T02:16:29.495Z,82.17
2018-06-20T02:18:58.431Z,82.01
2018-06-20T02:21:27.431Z,82.55
2018-06-20T02:23:56.435Z,82.52
2018-06-20T02:26:25.619Z,82.65
2018-06-20T02:28:54.643Z,82.74
2018-06-20T02:31:23.549Z,82.74
2018-06-20T02:33:53.080Z,82.59
2018-06-20T02:36:27.248Z,82.69
2018-06-20T02:38:56.220Z,82.78
2018-06-20T02:41:25.252Z,82.68
2018-06-20T02:43:54.140Z,82.40
2018-06-20T02:46:23.555Z,81.86
2018-06-20T02:48:52.580Z,81.81
2018-06-20T02:51:21.448Z,81.69
2018-06-20T02:53:50.354Z,81.42
2018-06-20T02:56:19.268Z,81.75
2018-06-20T02:58:48.192Z,81.88
2018-06-20T03:01:17.720Z,81.61
2018-06-20T03:03:46.668Z,81.72
2018-06-20T03:06:15.562Z,81.65
2018-06-20T03:08:46.177Z,82.24
2018-06-20T03:11:15.950Z,82.45
2018-06-20T03:13:44.945Z,82.29
2018-06-20T03:16:13.960Z,81.94
2018-06-20T03:18:42.851Z,81.64
2018-06-20T03:21:11.817Z,81.57
2018-06-20T03:23:40.723Z,81.11
2018-06-20T03:26:09.641Z,82.11
2018-06-20T03:28:39.456Z,81.67
2018-06-20T03:31:08.455Z,81.33
2018-06-20T03:33:37.684Z,81.07
2018-06-20T03:36:06.647Z,81.13
2018-06-20T03:38:36.040Z,81.31
2018-06-20T03:41:04.957Z,81.68
2018-06-20T03:43:34.192Z,82.03
2018-06-20T03:46:03.102Z,81.87
2018-06-20T03:48:32.077Z,81.99
2018-06-20T03:51:01.076Z,82.23
2018-06-20T03:53:29.983Z,82.31
2018-06-20T03:55:58.916Z,82.71
2018-06-20T03:58:28.088Z,82.99
2018-06-20T04:00:56.969Z,82.67
2018-06-20T04:03:25.853Z,82.48
2018-06-20T04:05:54.771Z,82.30
2018-06-20T04:08:24.113Z,82.31
2018-06-20T04:10:53.948Z,82.19
2018-06-20T04:13:22.897Z,82.36
2018-06-20T04:15:56.769Z,82.51
2018-06-20T04:18:36.015Z,82.41
2018-06-20T04:21:04.979Z,82.11
2018-06-20T04:23:33.856Z,82.31
2018-06-20T04:26:03.285Z,82.49
2018-06-20T04:28:32.180Z,82.37
2018-06-20T04:31:01.405Z,82.28
2018-06-20T04:33:30.996Z,82.21
2018-06-20T04:36:00.072Z,82.12
2018-06-20T04:38:28.974Z,82.37
2018-06-20T04:40:58.593Z,82.33
2018-06-20T04:43:27.541Z,81.89
2018-06-20T04:45:56.684Z,81.93
2018-06-20T04:48:25.995Z,82.25
2018-06-20T04:50:55.004Z,82.20
2018-06-20T04:53:23.927Z,82.17
2018-06-20T04:55:52.847Z,81.91
2018-06-20T04:58:21.774Z,81.83
2018-06-20T05:00:50.784Z,81.93
2018-06-20T05:03:19.678Z,81.84
2018-06-20T05:05:49.340Z,81.75
2018-06-20T05:08:18.240Z,81.67
2018-06-20T05:10:47.864Z,82.00
2018-06-20T05:13:16.843Z,81.90
2018-06-20T05:15:45.747Z,81.76
2018-06-20T05:18:14.693Z,82.10
2018-06-20T05:20:44.621Z,81.84
2018-06-20T05:23:13.523Z,82.07
2018-06-20T05:25:42.892Z,82.15
2018-06-20T05:28:11.958Z,82.27
2018-06-20T05:30:41.139Z,82.30
2018-06-20T05:33:10.059Z,82.23
2018-06-20T05:35:38.953Z,81.90
2018-06-20T05:38:08.583Z,81.75
2018-06-20T05:40:37.499Z,81.66
2018-06-20T05:43:06.396Z,82.02
2018-06-20T05:45:35.996Z,82.04
2018-06-20T05:48:04.920Z,81.84
2018-06-20T05:50:34.868Z,81.54
2018-06-20T05:53:04.338Z,81.70
2018-06-20T05:55:33.937Z,81.72
2018-06-20T05:58:03.201Z,81.51
2018-06-20T06:00:32.135Z,81.78
2018-06-20T06:03:01.081Z,81.66
2018-06-20T06:05:30.037Z,81.54
2018-06-20T06:07:59.600Z,81.39
2018-06-20T06:10:28.525Z,81.63
2018-06-20T06:12:57.408Z,81.36
2018-06-20T06:15:26.681Z,81.50
2018-06-20T06:17:55.782Z,81.52
2018-06-20T06:20:25.006Z,81.62
2018-06-20T06:22:53.893Z,81.60
2018-06-20T06:25:22.807Z,81.84
2018-06-20T06:27:51.719Z,82.05
2018-06-20T06:30:20.685Z,81.78
2018-06-20T06:32:49.699Z,81.32
2018-06-20T06:35:18.599Z,81.29
2018-06-20T06:37:47.732Z,81.55
2018-06-20T06:40:16.586Z,81.46
2018-06-20T06:42:45.506Z,81.35
2018-06-20T06:45:14.556Z,81.06
2018-06-20T06:47:43.442Z,81.20
2018-06-20T06:50:13.138Z,81.06
2018-06-20T06:52:42.143Z,80.74
2018-06-20T06:55:11.098Z,80.77
2018-06-20T06:57:40.000Z,80.61
2018-06-20T07:00:08.924Z,81.02
2018-06-20T07:02:38.384Z,80.85
2018-06-20T07:05:07.313Z,80.67
2018-06-20T07:07:36.914Z,81.13
2018-06-20T07:10:05.812Z,80.89
2018-06-20T07:12:35.619Z,80.97
2018-06-20T07:15:04.668Z,80.84
2018-06-20T07:17:33.704Z,80.63
2018-06-20T07:20:02.704Z,80.44
2018-06-20T07:22:31.627Z,80.94
2018-06-20T07:25:00.536Z,80.80
2018-06-20T07:27:29.780Z,80.51
2018-06-20T07:29:58.868Z,80.75
2018-06-20T07:32:27.832Z,80.76
2018-06-20T07:34:56.771Z,80.31
2018-06-20T07:37:26.008Z,80.55
2018-06-20T07:39:54.911Z,80.71
2018-06-20T07:42:23.823Z,80.43
2018-06-20T07:44:52.746Z,80.27
2018-06-20T07:47:21.650Z,80.17
2018-06-20T07:49:50.568Z,80.58
2018-06-20T07:52:19.514Z,80.67
2018-06-20T07:54:48.476Z,80.60
2018-06-20T07:57:18.353Z,80.16
2018-06-20T07:59:53.220Z,80.08
2018-06-20T08:02:38.797Z,80.05
2018-06-20T08:05:13.083Z,80.45
2018-06-20T08:07:47.289Z,80.42
2018-06-20T08:10:21.557Z,80.07
2018-06-20T08:12:55.753Z,79.91
2018-06-20T08:15:29.933Z,79.32
2018-06-20T08:18:04.109Z,79.65
2018-06-20T08:20:33.939Z,79.80
2018-06-20T08:23:02.911Z,79.92
2018-06-20T08:25:31.907Z,79.69
2018-06-20T08:28:00.880Z,79.17
2018-06-20T08:30:29.813Z,79.00
2018-06-20T08:32:58.753Z,79.03
2018-06-20T08:35:31.731Z,79.01
2018-06-20T08:38:00.704Z,78.53
2018-06-20T08:40:29.759Z,78.84
2018-06-20T08:42:58.676Z,78.96
2018-06-20T08:45:27.584Z,79.00
2018-06-20T09:01:02.558Z,79.31
2018-06-20T09:03:31.516Z,79.38
2018-06-20T09:06:05.823Z,79.28
2018-06-20T09:08:40.170Z,78.93
2018-06-20T09:11:14.338Z,78.65
2018-06-20T09:13:48.525Z,78.43
2018-06-20T09:16:22.808Z,78.53
2018-06-20T09:18:56.932Z,78.03
2018-06-20T09:21:25.946Z,77.77
2018-06-20T09:23:54.884Z,77.95
2018-06-20T09:26:23.868Z,77.57
2018-06-20T09:28:53.080Z,77.79
2018-06-20T09:31:22.896Z,77.35
2018-06-20T09:33:52.700Z,77.28
2018-06-20T09:36:21.672Z,77.69
2018-06-20T09:38:50.656Z,77.10
2018-06-20T09:41:20.329Z,76.75
2018-06-20T09:43:49.267Z,76.55
2018-06-20T09:46:18.367Z,77.24
2018-06-20T09:48:47.303Z,77.01
2018-06-20T09:51:16.220Z,77.23
2018-06-20T09:53:45.196Z,77.33
2018-06-20T09:56:14.136Z,77.00
2018-06-20T09:58:43.052Z,76.15
2018-06-20T10:01:17.993Z,76.03
2018-06-20T10:03:52.297Z,76.13
2018-06-20T11:50:18.473Z,70.73
2018-06-20T11:52:52.850Z,70.91
2018-06-20T11:55:27.915Z,69.93
2018-06-20T11:58:03.307Z,69.73
2018-06-20T12:00:46.614Z,68.85
2018-06-20T12:03:20.763Z,69.14
2018-06-20T12:05:55.309Z,68.78
2018-06-20T12:08:29.501Z,68.37
2018-06-20T12:11:03.737Z,68.53
2018-06-20T12:13:37.972Z,68.14
2018-06-20T12:16:12.329Z,68.23
2018-06-20T12:18:46.623Z,68.60
2018-06-20T12:21:20.783Z,68.50
2018-06-20T12:23:55.192Z,68.62
2018-06-20T12:26:29.543Z,68.21
2018-06-20T12:29:03.849Z,67.63
2018-06-20T12:31:38.071Z,67.93
2018-06-20T12:34:18.246Z,67.45
2018-06-20T12:36:59.333Z,67.34
2018-06-20T12:39:27.637Z,66.57
2018-06-20T12:42:02.017Z,67.81
2018-06-20T12:44:36.297Z,66.85
2018-06-20T12:47:25.605Z,66.13
2018-06-20T12:49:59.464Z,65.76
2018-06-20T12:52:28.569Z,65.38
2018-06-20T12:54:57.665Z,64.90
2018-06-20T12:57:28.213Z,64.35
2018-06-20T12:59:58.098Z,63.97
2018-06-20T13:02:27.280Z,64.23
2018-06-20T13:04:56.244Z,64.57
2018-06-20T13:07:27.328Z,64.49
2018-06-20T13:09:56.592Z,64.72
2018-06-20T13:12:25.628Z,64.77
2018-06-20T13:14:54.625Z,64.76
2018-06-20T13:17:24.318Z,64.99
2018-06-20T13:19:53.229Z,65.21
2018-06-20T13:22:28.063Z,65.39
2018-06-20T13:25:02.582Z,64.03
2018-06-20T13:27:36.700Z,63.73
2018-06-20T13:30:08.584Z,63.67
2018-06-20T13:32:42.937Z,63.44
2018-06-20T13:35:16.936Z,63.73
2018-06-20T13:37:51.424Z,63.76
2018-06-20T13:40:25.618Z,63.16
2018-06-20T13:43:00.023Z,63.31
2018-06-20T13:45:34.175Z,62.70
2018-06-20T13:48:08.949Z,62.72
2018-06-20T13:50:37.880Z,62.65
2018-06-20T13:53:06.829Z,62.48
2018-06-20T13:55:35.744Z,62.05
2018-06-20T13:58:04.805Z,61.49
2018-06-20T14:00:33.999Z,62.19
2018-06-20T14:03:03.003Z,62.49
2018-06-20T14:05:32.221Z,62.08
2018-06-20T14:08:01.120Z,62.10
2018-06-20T14:10:30.185Z,61.96
2018-06-20T14:12:59.215Z,61.51
2018-06-20T14:15:28.487Z,60.79
2018-06-20T14:17:57.470Z,60.53
2018-06-20T14:20:31.845Z,60.86
2018-06-20T14:23:01.242Z,60.56
2018-06-20T14:25:31.120Z,59.48
2018-06-20T14:28:01.128Z,58.57
2018-06-20T14:31:36.406Z,58.46
2018-06-20T14:34:11.345Z,59.36
2018-06-20T14:36:45.609Z,59.71
2018-06-20T14:39:20.100Z,60.79
2018-06-20T14:41:54.301Z,59.88
2018-06-20T14:44:23.570Z,58.67
2018-06-20T14:46:52.699Z,57.28
2018-06-20T14:49:22.826Z,56.43
2018-06-20T14:51:51.837Z,56.28
2018-06-20T14:54:20.775Z,55.70
2018-06-20T14:56:49.762Z,55.01
2018-06-20T14:59:18.689Z,54.70
2018-06-20T15:01:47.576Z,54.77
2018-06-20T15:04:16.568Z,54.70
2018-06-20T15:06:45.741Z,54.91
2018-06-20T15:09:14.709Z,54.53
2018-06-20T15:11:43.759Z,54.10
2018-06-20T15:14:12.713Z,53.57
2018-06-20T15:16:46.975Z,54.23
2018-06-20T15:19:16.453Z,53.84
2018-06-20T15:21:46.187Z,52.65
2018-06-20T15:24:15.145Z,53.49
2018-06-20T15:26:49.307Z,53.89
2018-06-20T15:29:23.473Z,53.82
2018-06-20T15:31:58.809Z,52.50
2018-06-20T15:34:33.124Z,51.63
2018-06-20T15:37:07.403Z,52.51
2018-06-20T15:39:36.473Z,52.79
2018-06-20T15:42:05.545Z,52.99
2018-06-20T15:44:34.519Z,53.97
2018-06-20T15:47:04.297Z,53.28
2018-06-20T15:49:33.609Z,53.92
2018-06-20T15:52:02.863Z,53.59
2018-06-20T15:54:32.745Z,54.10
2018-06-20T15:57:01.659Z,54.32
2018-06-20T15:59:30.626Z,54.79
2018-06-20T16:01:59.523Z,54.92
2018-06-20T16:04:28.468Z,55.30
2018-06-20T16:06:57.789Z,55.14
2018-06-20T16:09:32.131Z,55.18
2018-06-20T16:12:01.396Z,55.20
2018-06-20T16:14:30.368Z,55.34
2018-06-20T16:17:00.271Z,55.46
2018-06-20T16:19:34.367Z,55.47
2018-06-20T16:22:08.505Z,55.82
2018-06-20T16:24:43.023Z,55.43
2018-06-20T16:27:17.127Z,55.09
2018-06-20T16:29:56.345Z,55.61
2018-06-20T16:32:25.344Z,56.47
2018-06-20T16:34:54.412Z,56.78
2018-06-20T16:37:23.392Z,57.00
2018-06-20T16:42:34.796Z,56.93
2018-06-20T16:45:03.813Z,56.67
2018-06-20T16:47:33.652Z,57.30
2018-06-20T16:50:02.725Z,57.86
2018-06-20T16:52:31.614Z,57.94
2018-06-20T16:55:01.098Z,58.07
2018-06-20T16:57:31.132Z,57.78
2018-06-20T17:00:00.103Z,57.24
2018-06-20T17:02:33.595Z,57.65
2018-06-20T17:05:03.260Z,57.69
2018-06-20T17:07:32.750Z,57.90
2018-06-20T17:10:01.693Z,58.17
2018-06-20T17:12:35.997Z,58.35
2018-06-20T17:15:10.975Z,58.72
2018-06-20T17:17:46.027Z,58.78
2018-06-20T17:20:20.306Z,58.78
2018-06-20T17:22:54.565Z,59.19
2018-06-20T17:25:26.057Z,59.50
2018-06-20T17:27:55.153Z,59.99
2018-06-20T17:30:24.135Z,59.92
2018-06-20T17:32:53.243Z,60.61
2018-06-20T17:45:07.363Z,60.69
2018-06-20T17:47:36.316Z,60.79
2018-06-20T17:50:05.672Z,60.52
2018-06-20T17:52:34.667Z,60.33
2018-06-20T17:55:03.629Z,60.50
2018-06-20T17:57:32.569Z,59.78
2018-06-20T18:00:01.486Z,59.65
2018-06-20T18:02:30.364Z,59.82
2018-06-20T18:05:04.752Z,59.60
2018-06-20T18:08:44.471Z,59.51
2018-06-20T18:11:17.165Z,59.10
2018-06-20T18:13:51.779Z,59.59
2018-06-20T18:16:27.011Z,60.12
2018-06-20T18:18:56.400Z,60.63
2018-06-20T18:28:43.564Z,59.75
2018-06-20T18:33:16.856Z,57.89
2018-06-20T18:38:22.757Z,57.66
2018-06-20T18:40:51.716Z,58.88
2018-06-20T18:43:20.684Z,60.01
2018-06-20T18:48:42.470Z,61.22
2018-06-20T18:51:11.500Z,61.67
2018-06-20T18:53:41.446Z,62.28
2018-06-20T18:56:10.442Z,62.31
2018-06-20T18:58:45.879Z,62.51
2018-06-20T19:01:20.170Z,63.19
2018-06-20T19:06:01.040Z,63.69
2018-06-20T19:08:35.431Z,63.73
2018-06-20T19:11:08.181Z,64.27
2018-06-20T19:13:38.191Z,64.49
2018-06-20T19:16:07.161Z,64.39
2018-06-20T19:18:36.282Z,65.16
2018-06-20T19:21:05.229Z,65.24
2018-06-20T19:23:34.171Z,65.67
2018-06-20T19:26:03.123Z,65.55
2018-06-20T19:28:32.085Z,65.86
2018-06-20T19:31:01.019Z,66.35
2018-06-20T19:33:33.682Z,66.53
2018-06-20T19:36:02.709Z,66.12
2018-06-20T19:38:33.716Z,67.11
2018-06-20T19:41:02.700Z,67.18
2018-06-20T19:43:31.611Z,67.36
2018-06-20T19:46:00.561Z,67.78
2018-06-20T19:48:29.523Z,67.64
2018-06-20T19:50:58.570Z,68.27
2018-06-20T19:53:27.535Z,68.68
2018-06-20T19:55:57.540Z,69.03
2018-06-20T19:58:26.524Z,69.42
2018-06-20T20:00:55.512Z,69.09
2018-06-20T20:03:25.532Z,69.23
2018-06-20T20:05:54.680Z,69.37
2018-06-20T20:08:27.496Z,69.81
2018-06-20T20:11:00.340Z,70.52
2018-06-20T20:13:29.388Z,70.49
2018-06-20T20:15:58.319Z,71.13
2018-06-20T20:18:27.350Z,71.05
2018-06-20T20:21:06.686Z,71.29
2018-06-20T20:23:35.699Z,71.88
2018-06-20T20:26:04.662Z,71.90
2018-06-20T20:28:33.601Z,72.07
2018-06-20T20:31:02.590Z,72.52
2018-06-20T20:33:31.637Z,72.74
2018-06-20T20:36:06.565Z,72.56
2018-06-20T20:38:36.492Z,72.79
2018-06-20T20:41:11.140Z,72.75
2018-06-20T20:43:41.100Z,73.02
2018-06-20T20:46:10.092Z,72.68
2018-06-20T20:48:39.096Z,72.67
2018-06-20T20:51:10.299Z,73.05
2018-06-20T20:53:39.492Z,72.89
2018-06-20T20:56:08.477Z,72.58
2018-06-20T20:58:37.585Z,72.93
2018-06-20T21:01:07.546Z,72.98
2018-06-20T21:03:36.829Z,73.41
2018-06-20T21:06:05.897Z,73.57
2018-06-20T21:08:35.854Z,73.54
2018-06-20T21:11:06.825Z,73.73
2018-06-20T21:13:39.221Z,74.81
2018-06-20T21:16:08.130Z,74.48
2018-06-20T21:18:37.036Z,74.36
2018-06-20T21:21:06.078Z,74.73
2018-06-20T21:23:35.044Z,74.99
2018-06-20T21:26:04.084Z,74.98
2018-06-20T21:28:33.031Z,75.44
2018-06-20T21:31:02.005Z,75.98
2018-06-20T21:33:36.515Z,75.84
2018-06-20T21:36:05.500Z,76.18
2018-06-20T21:38:34.592Z,76.20
2018-06-20T21:41:03.553Z,76.01
2018-06-20T21:43:32.499Z,76.14
2018-06-20T21:46:01.451Z,76.54
2018-06-20T21:48:30.431Z,76.44
2018-06-20T21:51:04.975Z,76.62
2018-06-20T21:53:33.974Z,76.59
2018-06-20T21:56:02.946Z,76.92
2018-06-20T21:58:31.848Z,77.03
2018-06-20T22:01:00.824Z,76.88
2018-06-20T22:03:29.732Z,77.39
2018-06-20T22:05:59.776Z,77.53
2018-06-20T22:08:28.740Z,77.59
2018-06-20T22:10:57.718Z,77.71
2018-06-20T22:13:27.449Z,77.64
2018-06-20T22:15:56.454Z,77.04
2018-06-20T22:18:25.372Z,77.25
2018-06-20T22:20:54.315Z,76.65
2018-06-20T22:23:23.263Z,76.09
2018-06-20T22:25:52.155Z,76.27
2018-06-20T22:28:21.105Z,76.25
2018-06-20T22:30:50.110Z,75.96
2018-06-20T22:33:19.060Z,76.08
2018-06-20T22:35:48.027Z,76.27
2018-06-20T22:38:17.051Z,75.96
2018-06-20T22:40:46.041Z,76.28
2018-06-20T22:43:14.995Z,76.87
2018-06-20T22:45:43.936Z,76.87
2018-06-20T22:48:12.935Z,76.47
2018-06-20T22:50:41.902Z,76.44
2018-06-20T22:53:10.815Z,76.35
2018-06-20T22:55:39.798Z,76.13
2018-06-20T22:58:08.745Z,76.45
2018-06-20T23:00:37.779Z,76.37
2018-06-20T23:03:06.756Z,77.01
2018-06-20T23:05:35.695Z,76.96
2018-06-20T23:08:04.725Z,76.35
2018-06-20T23:10:33.730Z,76.33
2018-06-20T23:13:02.691Z,76.15
2018-06-20T23:15:31.669Z,76.49
2018-06-20T23:18:00.715Z,76.72
2018-06-20T23:20:29.721Z,76.47
2018-06-20T23:22:58.729Z,76.21
2018-06-20T23:25:27.686Z,76.47
2018-06-20T23:27:56.743Z,76.76
2018-06-20T23:30:25.732Z,76.93
2018-06-20T23:33:00.127Z,76.54
2018-06-20T23:35:29.110Z,76.55
2018-06-20T23:37:58.104Z,77.01
2018-06-20T23:40:27.103Z,76.69
2018-06-20T23:42:56.132Z,77.07
2018-06-20T23:45:25.083Z,77.63
2018-06-20T23:47:54.095Z,77.12
2018-06-20T23:50:23.114Z,77.19
2018-06-20T23:52:52.059Z,77.51
2018-06-20T23:55:21.078Z,77.28
2018-06-20T23:57:50.034Z,77.53
